createdAt,value
2023-02-14T00:03:36.925Z,12.88
2023-02-14T00:07:49.306Z,13.18
2023-02-14T00:12:01.685Z,13.00
2023-02-14T00:16:14.969Z,5.03
2023-02-14T00:20:28.531Z,14.02
2023-02-14T00:24:40.902Z,5.00
2023-02-14T00:28:53.197Z,13.05
2023-02-14T00:33:05.515Z,13.27
2023-02-14T00:37:17.912Z,12.55
2023-02-14T00:41:30.646Z,12.68
2023-02-14T00:45:43.111Z,4.82
2023-02-14T00:49:55.645Z,13.35
2023-02-14T00:54:08.112Z,13.27
2023-02-14T00:58:20.535Z,13.95
2023-02-14T01:02:32.907Z,13.90
2023-02-14T01:06:45.317Z,5.90
2023-02-14T01:10:58.962Z,5.78
2023-02-14T01:15:12.116Z,4.80
2023-02-14T01:19:24.439Z,12.48
2023-02-14T01:23:36.793Z,4.50
2023-02-14T01:27:49.247Z,11.50
2023-02-14T01:32:01.730Z,10.75
2023-02-14T01:36:26.838Z,13.23
2023-02-14T01:40:44.967Z,15.07
2023-02-14T01:45:09.115Z,15.95
2023-02-14T01:49:36.075Z,6.93
2023-02-14T01:53:49.480Z,17.42
2023-02-14T01:58:10.043Z,13.95
2023-02-14T02:02:24.171Z,15.25
2023-02-14T02:06:40.741Z,5.65
2023-02-14T02:10:53.093Z,14.30
2023-02-14T02:15:08.275Z,15.73
2023-02-14T02:19:20.563Z,6.50
2023-02-14T02:24:06.953Z,18.75
2023-02-14T02:29:01.418Z,18.10
2023-02-14T02:34:03.014Z,28.60
2023-02-14T02:38:52.999Z,41.40
2023-02-14T02:43:32.739Z,18.80
2023-02-14T02:48:04.596Z,54.33
2023-02-14T02:53:04.036Z,20.70
2023-02-14T02:57:27.179Z,18.98
2023-02-14T03:01:42.740Z,17.90
2023-02-14T03:05:55.896Z,13.93
2023-02-14T03:10:21.388Z,26.10
2023-02-14T03:14:59.991Z,6.65
2023-02-14T03:19:25.923Z,14.98
2023-02-14T03:23:59.939Z,11.45
2023-02-14T03:28:19.750Z,4.32
2023-02-14T03:33:04.814Z,5.10
2023-02-14T03:37:42.583Z,4.18
2023-02-14T03:42:06.431Z,4.13
2023-02-14T03:46:38.246Z,9.73
2023-02-14T03:50:53.028Z,3.13
2023-02-14T03:55:08.319Z,3.10
2023-02-14T03:59:29.161Z,3.85
2023-02-14T04:03:43.378Z,3.58
2023-02-14T04:07:57.963Z,3.35
2023-02-14T04:12:11.225Z,4.00
2023-02-14T04:16:23.638Z,3.67
2023-02-14T04:20:37.397Z,11.63
2023-02-14T04:24:49.907Z,10.38
2023-02-14T04:29:02.327Z,4.70
2023-02-14T04:33:14.736Z,4.40
2023-02-14T04:37:27.347Z,9.77
2023-02-14T04:41:39.682Z,4.25
2023-02-14T04:45:52.057Z,3.20
2023-02-14T04:50:04.880Z,3.20
2023-02-14T04:54:17.268Z,10.30
2023-02-14T04:58:29.679Z,4.50
2023-02-14T05:02:41.921Z,10.82
2023-02-14T05:06:54.272Z,10.15
2023-02-14T05:11:06.845Z,3.58
2023-02-14T05:15:19.120Z,4.90
2023-02-14T05:19:31.408Z,11.02
2023-02-14T05:23:44.864Z,11.52
2023-02-14T05:27:58.410Z,4.15
2023-02-14T05:32:12.356Z,17.05
2023-02-14T05:36:26.570Z,6.88
2023-02-14T05:40:43.308Z,7.93
2023-02-14T05:44:56.574Z,4.72
2023-02-14T05:49:12.094Z,11.07
2023-02-14T05:53:24.590Z,3.42
2023-02-14T05:57:37.197Z,3.47
2023-02-14T06:01:49.604Z,4.82
2023-02-14T06:06:02.050Z,3.20
2023-02-14T06:10:14.489Z,10.27
2023-02-14T06:14:27.072Z,10.88
2023-02-14T06:18:39.525Z,4.72
2023-02-14T06:22:52.365Z,4.78
2023-02-14T06:27:04.682Z,4.30
2023-02-14T06:31:18.872Z,19.98
2023-02-14T06:35:31.530Z,23.30
2023-02-14T06:39:44.046Z,9.20
2023-02-14T06:43:56.637Z,19.85
2023-02-14T06:48:09.081Z,5.57
2023-02-14T06:52:21.481Z,14.85
2023-02-14T06:56:33.901Z,8.73
2023-02-14T07:00:47.181Z,8.55
2023-02-14T07:04:59.576Z,11.50
2023-02-14T07:09:11.904Z,36.47
2023-02-14T07:13:25.209Z,35.47
2023-02-14T07:17:38.138Z,15.70
2023-02-14T07:21:50.499Z,12.70
2023-02-14T07:26:04.011Z,36.10
2023-02-14T07:30:16.835Z,32.58
2023-02-14T07:34:29.195Z,33.65
2023-02-14T07:38:41.640Z,34.13
2023-02-14T07:42:55.929Z,11.60
2023-02-14T07:47:09.706Z,14.38
2023-02-14T07:51:22.200Z,30.75
2023-02-14T07:55:35.138Z,31.52
2023-02-14T07:59:48.766Z,33.35
2023-02-14T08:04:01.288Z,33.85
2023-02-14T08:08:13.604Z,15.45
2023-02-14T08:12:44.456Z,35.88
2023-02-14T08:16:56.891Z,34.05
2023-02-14T08:21:11.224Z,34.70
2023-02-14T08:25:23.603Z,33.55
2023-02-14T08:29:36.105Z,35.20
2023-02-14T08:33:49.415Z,34.67
2023-02-14T08:38:02.405Z,34.00
2023-02-14T08:42:14.894Z,33.30
2023-02-14T08:46:27.511Z,34.60
2023-02-14T08:50:41.102Z,31.70
2023-02-14T08:54:53.425Z,27.20
2023-02-14T08:59:05.861Z,19.95
2023-02-14T09:03:18.464Z,18.58
2023-02-14T09:07:31.172Z,16.40
2023-02-14T09:11:43.971Z,18.52
2023-02-14T09:15:56.869Z,19.58
2023-02-14T09:20:11.791Z,21.98
2023-02-14T09:24:26.999Z,23.13
2023-02-14T09:28:40.349Z,21.08
2023-02-14T09:32:54.334Z,20.45
2023-02-14T09:37:25.420Z,18.13
2023-02-14T09:42:10.858Z,16.45
2023-02-14T09:46:25.586Z,16.48
2023-02-14T09:50:52.101Z,15.60
2023-02-14T09:55:05.047Z,12.70
2023-02-14T09:59:20.578Z,11.82
2023-02-14T10:03:55.572Z,14.50
2023-02-14T10:08:36.885Z,15.88
2023-02-14T10:13:01.090Z,15.63
2023-02-14T10:17:39.288Z,15.65
2023-02-14T10:22:02.573Z,17.13
2023-02-14T10:26:28.511Z,12.85
2023-02-14T10:30:50.933Z,15.32
2023-02-14T10:35:12.842Z,15.57
2023-02-14T10:39:40.373Z,13.75
2023-02-14T10:44:24.597Z,15.32
2023-02-14T10:48:59.884Z,16.70
2023-02-14T10:53:31.179Z,17.27
2023-02-14T10:57:48.414Z,18.02
2023-02-14T11:02:01.970Z,17.45
2023-02-14T11:06:14.711Z,17.42
2023-02-14T11:10:32.418Z,16.58
2023-02-14T11:14:44.722Z,15.32
2023-02-14T11:19:20.323Z,13.32
2023-02-14T11:23:35.393Z,10.23
2023-02-14T11:27:51.224Z,11.50
2023-02-14T11:32:08.825Z,12.23
2023-02-14T11:36:21.684Z,11.32
2023-02-14T11:40:37.281Z,10.95
2023-02-14T11:44:56.821Z,10.90
2023-02-14T11:49:31.084Z,11.48
2023-02-14T11:53:56.233Z,9.68
2023-02-14T11:58:18.392Z,10.88
2023-02-14T12:02:43.670Z,10.43
2023-02-14T12:06:56.566Z,11.02
2023-02-14T12:11:27.604Z,10.25
2023-02-14T12:15:52.537Z,8.93
2023-02-14T12:20:35.537Z,10.02
2023-02-14T12:25:10.536Z,9.45
2023-02-14T12:29:51.704Z,10.88
2023-02-14T12:34:06.155Z,10.30
2023-02-14T12:38:50.971Z,11.02
2023-02-14T12:43:40.706Z,10.85
2023-02-14T12:48:06.280Z,11.00
2023-02-14T12:52:55.753Z,11.20
2023-02-14T12:57:29.413Z,11.52
2023-02-14T13:01:49.917Z,11.52
2023-02-14T13:06:08.490Z,12.07
2023-02-14T13:10:31.295Z,12.35
2023-02-14T13:15:16.313Z,9.82
2023-02-14T13:19:38.112Z,10.13
2023-02-14T13:23:55.317Z,9.90
2023-02-14T13:28:13.273Z,10.63
2023-02-14T13:32:29.414Z,10.82
2023-02-14T13:36:44.693Z,10.63
2023-02-14T13:40:59.701Z,9.75
2023-02-14T13:45:41.416Z,9.55
2023-02-14T13:50:03.759Z,9.27
2023-02-14T13:54:29.393Z,9.80
2023-02-14T13:58:53.740Z,9.90
2023-02-14T14:03:07.864Z,9.50
2023-02-14T14:07:27.196Z,10.05
2023-02-14T14:11:39.475Z,10.30
2023-02-14T14:16:27.203Z,10.00
2023-02-14T14:21:00.252Z,10.45
2023-02-14T14:25:14.299Z,8.50
2023-02-14T14:29:38.637Z,9.27
2023-02-14T14:33:59.557Z,9.48
2023-02-14T14:38:14.577Z,11.20
2023-02-14T14:42:31.086Z,10.93
2023-02-14T14:46:43.540Z,10.40
2023-02-14T14:50:56.361Z,9.35
2023-02-14T14:55:16.760Z,11.00
2023-02-14T14:59:40.746Z,12.27
2023-02-14T15:03:53.186Z,12.82
2023-02-14T15:08:23.942Z,10.73
2023-02-14T15:12:55.627Z,13.55
2023-02-14T15:17:35.725Z,12.90
2023-02-14T15:21:48.303Z,11.63
2023-02-14T15:26:01.652Z,11.13
2023-02-14T15:30:20.375Z,11.73
2023-02-14T15:34:38.567Z,11.23
2023-02-14T15:38:53.256Z,10.18
2023-02-14T15:43:31.257Z,10.43
2023-02-14T15:47:46.209Z,13.73
2023-02-14T15:52:02.710Z,11.07
2023-02-14T15:56:34.008Z,11.30
2023-02-14T16:00:49.011Z,13.15
2023-02-14T16:05:17.545Z,13.35
2023-02-14T16:09:34.583Z,15.63
2023-02-14T16:13:47.403Z,21.17
2023-02-14T16:18:01.392Z,20.02
2023-02-14T16:22:26.128Z,17.52
2023-02-14T16:26:44.212Z,19.27
2023-02-14T16:30:59.246Z,23.73
2023-02-14T16:35:20.107Z,22.20
2023-02-14T16:39:32.685Z,22.15
2023-02-14T16:43:46.319Z,22.38
2023-02-14T16:47:58.760Z,21.85
2023-02-14T16:52:25.988Z,23.05
2023-02-14T16:57:01.738Z,22.58
2023-02-14T17:01:15.737Z,25.02
2023-02-14T17:05:33.048Z,27.25
2023-02-14T17:09:53.073Z,28.20
2023-02-14T17:18:21.814Z,28.17
2023-02-14T17:22:35.313Z,28.52
2023-02-14T17:26:48.586Z,28.40
2023-02-14T17:31:01.329Z,28.98
2023-02-14T17:35:15.033Z,35.17
2023-02-14T17:39:27.426Z,33.42
2023-02-14T17:43:39.836Z,39.13
2023-02-14T17:47:52.660Z,39.13
2023-02-14T17:52:05.190Z,48.92
2023-02-14T17:56:22.265Z,41.15
2023-02-14T18:00:35.175Z,42.45
2023-02-14T18:04:48.759Z,34.20
2023-02-14T18:09:05.789Z,31.63
2023-02-14T18:13:18.460Z,32.70
2023-02-14T18:17:30.970Z,37.08
2023-02-14T18:21:45.490Z,29.98
2023-02-14T18:26:01.417Z,30.77
2023-02-14T18:30:14.235Z,30.20
2023-02-14T18:34:27.206Z,30.90
2023-02-14T18:38:40.491Z,30.52
2023-02-14T18:42:54.972Z,27.35
2023-02-14T18:47:07.575Z,25.92
2023-02-14T18:51:28.591Z,24.35
2023-02-14T18:55:41.017Z,25.05
2023-02-14T18:59:53.816Z,25.60
2023-02-14T19:04:08.963Z,25.85
2023-02-14T19:08:21.313Z,25.80
2023-02-14T19:12:35.095Z,26.35
2023-02-14T19:16:54.342Z,28.58
2023-02-14T19:21:14.876Z,29.15
2023-02-14T19:29:41.362Z,28.35
2023-02-14T19:33:53.777Z,26.67
2023-02-14T19:38:07.226Z,25.23
2023-02-14T19:42:19.611Z,24.58
2023-02-14T19:46:32.661Z,22.67
2023-02-14T19:50:47.102Z,22.98
2023-02-14T19:55:03.005Z,23.95
2023-02-14T19:59:20.524Z,23.98
2023-02-14T20:03:33.627Z,24.17
2023-02-14T20:07:49.532Z,22.50
2023-02-14T20:12:02.038Z,21.70
2023-02-14T20:16:16.972Z,22.25
2023-02-14T20:20:51.630Z,22.35
2023-02-14T20:25:05.897Z,21.45
2023-02-14T20:29:20.142Z,22.90
2023-02-14T20:33:33.651Z,24.42
2023-02-14T20:37:46.081Z,25.33
2023-02-14T20:41:59.787Z,27.90
2023-02-14T20:46:12.387Z,31.15
2023-02-14T20:50:24.748Z,33.90
2023-02-14T20:54:38.866Z,28.15
2023-02-14T20:58:53.591Z,31.63
2023-02-14T21:03:06.376Z,31.45
2023-02-14T21:07:19.700Z,29.58
2023-02-14T21:11:32.973Z,37.70
2023-02-14T21:15:45.371Z,16.35
2023-02-14T21:19:58.500Z,45.33
2023-02-14T21:24:18.708Z,45.75
2023-02-14T21:28:31.275Z,19.02
2023-02-14T21:32:43.514Z,45.95
2023-02-14T21:36:56.572Z,18.85
2023-02-14T21:41:14.058Z,48.03
2023-02-14T21:45:44.880Z,47.83
2023-02-14T21:50:15.854Z,41.90
2023-02-14T21:54:28.395Z,37.67
2023-02-14T21:58:41.337Z,40.75
2023-02-14T22:02:53.743Z,15.27
2023-02-14T22:07:07.379Z,41.50
2023-02-14T22:11:20.120Z,36.65
2023-02-14T22:15:34.013Z,33.67
2023-02-14T22:19:48.668Z,12.05
2023-02-14T22:24:01.780Z,28.50
2023-02-14T22:28:14.077Z,11.55
2023-02-14T22:32:27.502Z,10.45
2023-02-14T22:36:40.028Z,28.50
2023-02-14T22:41:00.284Z,12.25
2023-02-14T22:45:16.485Z,10.70
2023-02-14T22:49:29.704Z,27.15
2023-02-14T22:53:43.110Z,25.27
2023-02-14T22:57:55.482Z,8.63
2023-02-14T23:02:10.020Z,25.33
2023-02-14T23:06:23.348Z,17.48
2023-02-14T23:10:35.717Z,16.67
2023-02-14T23:15:06.659Z,44.42
2023-02-14T23:19:43.896Z,39.55
2023-02-14T23:23:56.225Z,14.07
2023-02-14T23:28:09.696Z,14.50
2023-02-14T23:32:22.159Z,16.15
2023-02-14T23:36:35.925Z,40.83
2023-02-14T23:41:06.830Z,14.18
2023-02-14T23:45:35.428Z,36.17
2023-02-14T23:49:48.068Z,37.30
2023-02-14T23:54:03.089Z,36.20
2023-02-14T23:58:16.479Z,10.48
